Terminal Aerodrome Forecast
Issued by NWS Sterling, VA

Current Version | Previous Version | Graphics & Text | Print | Product List | Glossary On
Versions: 1 2 3 4 5 6 7 8 9 10 11 12 13 14 15 16 17 18 19 20 21 22 23 24 25 26 27 28 29 30
178
FTUS41 KLWX 211941 AAA
TAFDCA
TAF AMD
KDCA 211941Z 2120/2218 02007KT 4SM -DZ BR OVC012
     FM212300 02009KT 6SM -SHRA BR OVC008
     FM220800 36005KT 5SM -SHRA BR OVC008
     FM221600 35007KT 3SM -SHRA OVC020=

USA.gov is the U.S. government's official web portal to all federal, state and local government web resources and services.